sensor_id;sensor_type;location;lat;lon;timestamp;P1;durP1;ratioP1;P2;durP2;ratioP2
29382;SDS011;16365;51.598;7.668;2023-07-20T00:02:05;7.22;;;3.08;;
29382;SDS011;16365;51.598;7.668;2023-07-20T00:04:33;6.85;;;3.00;;
29382;SDS011;16365;51.598;7.668;2023-07-20T00:07:00;8.32;;;3.40;;
29382;SDS011;16365;51.598;7.668;2023-07-20T00:09:29;8.52;;;3.50;;
29382;SDS011;16365;51.598;7.668;2023-07-20T00:11:56;6.72;;;3.40;;
29382;SDS011;16365;51.598;7.668;2023-07-20T00:14:23;5.93;;;3.35;;
29382;SDS011;16365;51.598;7.668;2023-07-20T00:16:50;5.18;;;3.00;;
29382;SDS011;16365;51.598;7.668;2023-07-20T00:19:23;4.18;;;3.08;;
29382;SDS011;16365;51.598;7.668;2023-07-20T00:21:50;5.03;;;3.08;;
29382;SDS011;16365;51.598;7.668;2023-07-20T00:24:16;6.75;;;3.75;;
29382;SDS011;16365;51.598;7.668;2023-07-20T00:26:43;8.45;;;4.50;;
29382;SDS011;16365;51.598;7.668;2023-07-20T00:29:10;11.07;;;4.30;;
29382;SDS011;16365;51.598;7.668;2023-07-20T00:31:37;6.90;;;3.65;;
29382;SDS011;16365;51.598;7.668;2023-07-20T00:34:03;6.78;;;3.67;;
29382;SDS011;16365;51.598;7.668;2023-07-20T00:36:30;6.55;;;3.95;;
29382;SDS011;16365;51.598;7.668;2023-07-20T00:38:57;12.23;;;3.95;;
29382;SDS011;16365;51.598;7.668;2023-07-20T00:41:23;7.35;;;4.07;;
29382;SDS011;16365;51.598;7.668;2023-07-20T00:43:50;6.80;;;3.85;;
29382;SDS011;16365;51.598;7.668;2023-07-20T00:46:17;7.07;;;4.78;;
29382;SDS011;16365;51.598;7.668;2023-07-20T00:48:43;9.43;;;4.18;;
29382;SDS011;16365;51.598;7.668;2023-07-20T00:51:10;8.02;;;3.95;;
29382;SDS011;16365;51.598;7.668;2023-07-20T00:53:37;8.77;;;4.53;;
29382;SDS011;16365;51.598;7.668;2023-07-20T00:56:06;10.43;;;5.00;;
29382;SDS011;16365;51.598;7.668;2023-07-20T00:58:35;9.82;;;4.97;;
29382;SDS011;16365;51.598;7.668;2023-07-20T01:01:02;9.88;;;5.30;;
29382;SDS011;16365;51.598;7.668;2023-07-20T01:03:29;13.55;;;5.78;;
29382;SDS011;16365;51.598;7.668;2023-07-20T01:14:05;8.00;;;5.38;;
29382;SDS011;16365;51.598;7.668;2023-07-20T01:16:32;16.95;;;5.78;;
29382;SDS011;16365;51.598;7.668;2023-07-20T01:18:59;9.73;;;5.95;;
29382;SDS011;16365;51.598;7.668;2023-07-20T01:21:30;8.45;;;4.97;;
29382;SDS011;16365;51.598;7.668;2023-07-20T01:32:03;11.23;;;5.75;;
29382;SDS011;16365;51.598;7.668;2023-07-20T01:34:33;9.45;;;5.90;;
29382;SDS011;16365;51.598;7.668;2023-07-20T01:37:01;9.90;;;5.03;;
29382;SDS011;16365;51.598;7.668;2023-07-20T01:39:30;11.57;;;5.60;;
29382;SDS011;16365;51.598;7.668;2023-07-20T01:41:57;13.52;;;5.57;;
29382;SDS011;16365;51.598;7.668;2023-07-20T01:44:24;12.80;;;5.28;;
29382;SDS011;16365;51.598;7.668;2023-07-20T01:46:50;12.88;;;5.85;;
29382;SDS011;16365;51.598;7.668;2023-07-20T01:49:18;7.68;;;5.13;;
29382;SDS011;16365;51.598;7.668;2023-07-20T01:51:44;13.68;;;5.35;;
29382;SDS011;16365;51.598;7.668;2023-07-20T01:54:11;11.50;;;5.18;;
29382;SDS011;16365;51.598;7.668;2023-07-20T01:56:39;13.10;;;5.38;;
29382;SDS011;16365;51.598;7.668;2023-07-20T01:59:05;19.45;;;6.43;;
29382;SDS011;16365;51.598;7.668;2023-07-20T02:01:32;13.82;;;5.43;;
29382;SDS011;16365;51.598;7.668;2023-07-20T02:03:58;11.35;;;5.78;;
29382;SDS011;16365;51.598;7.668;2023-07-20T02:06:25;11.07;;;5.28;;
29382;SDS011;16365;51.598;7.668;2023-07-20T02:08:51;16.63;;;5.60;;
29382;SDS011;16365;51.598;7.668;2023-07-20T02:11:19;9.30;;;5.60;;
29382;SDS011;16365;51.598;7.668;2023-07-20T02:13:45;10.52;;;5.80;;
29382;SDS011;16365;51.598;7.668;2023-07-20T02:16:12;13.38;;;5.80;;
29382;SDS011;16365;51.598;7.668;2023-07-20T02:18:38;17.20;;;5.53;;
29382;SDS011;16365;51.598;7.668;2023-07-20T02:21:05;14.32;;;5.28;;
29382;SDS011;16365;51.598;7.668;2023-07-20T02:23:32;12.35;;;5.82;;
29382;SDS011;16365;51.598;7.668;2023-07-20T02:26:00;14.90;;;5.45;;
29382;SDS011;16365;51.598;7.668;2023-07-20T02:28:27;12.25;;;5.25;;
29382;SDS011;16365;51.598;7.668;2023-07-20T02:30:53;11.35;;;5.65;;
29382;SDS011;16365;51.598;7.668;2023-07-20T02:33:20;12.82;;;5.05;;
29382;SDS011;16365;51.598;7.668;2023-07-20T02:35:47;9.43;;;5.88;;
29382;SDS011;16365;51.598;7.668;2023-07-20T02:38:14;15.27;;;6.10;;
29382;SDS011;16365;51.598;7.668;2023-07-20T02:40:41;13.40;;;6.30;;
29382;SDS011;16365;51.598;7.668;2023-07-20T02:43:07;10.48;;;5.78;;
29382;SDS011;16365;51.598;7.668;2023-07-20T02:45:35;16.20;;;6.57;;
29382;SDS011;16365;51.598;7.668;2023-07-20T02:48:07;14.05;;;7.35;;
29382;SDS011;16365;51.598;7.668;2023-07-20T02:50:34;14.38;;;7.03;;
29382;SDS011;16365;51.598;7.668;2023-07-20T02:53:01;15.40;;;6.43;;
29382;SDS011;16365;51.598;7.668;2023-07-20T02:55:28;16.10;;;6.43;;
29382;SDS011;16365;51.598;7.668;2023-07-20T02:57:55;13.05;;;6.82;;
29382;SDS011;16365;51.598;7.668;2023-07-20T03:00:22;16.98;;;6.95;;
29382;SDS011;16365;51.598;7.668;2023-07-20T03:02:49;11.40;;;6.68;;
29382;SDS011;16365;51.598;7.668;2023-07-20T03:05:24;14.80;;;6.90;;
29382;SDS011;16365;51.598;7.668;2023-07-20T03:07:51;11.05;;;6.05;;
29382;SDS011;16365;51.598;7.668;2023-07-20T03:10:18;15.18;;;6.53;;
29382;SDS011;16365;51.598;7.668;2023-07-20T03:12:44;14.32;;;7.20;;
29382;SDS011;16365;51.598;7.668;2023-07-20T03:15:11;16.88;;;8.02;;
29382;SDS011;16365;51.598;7.668;2023-07-20T03:17:37;16.13;;;6.97;;
29382;SDS011;16365;51.598;7.668;2023-07-20T03:20:04;11.98;;;7.13;;
29382;SDS011;16365;51.598;7.668;2023-07-20T03:22:35;15.15;;;7.28;;
29382;SDS011;16365;51.598;7.668;2023-07-20T03:25:02;12.75;;;7.68;;
29382;SDS011;16365;51.598;7.668;2023-07-20T03:27:28;16.55;;;8.13;;
29382;SDS011;16365;51.598;7.668;2023-07-20T03:29:55;15.70;;;7.80;;
29382;SDS011;16365;51.598;7.668;2023-07-20T03:32:22;12.13;;;7.55;;
29382;SDS011;16365;51.598;7.668;2023-07-20T03:34:48;17.52;;;8.10;;
29382;SDS011;16365;51.598;7.668;2023-07-20T03:37:15;10.57;;;7.30;;
29382;SDS011;16365;51.598;7.668;2023-07-20T03:39:42;9.50;;;5.50;;
29382;SDS011;16365;51.598;7.668;2023-07-20T03:42:09;11.35;;;4.63;;
29382;SDS011;16365;51.598;7.668;2023-07-20T03:44:36;10.05;;;4.07;;
29382;SDS011;16365;51.598;7.668;2023-07-20T03:47:02;7.35;;;3.63;;
29382;SDS011;16365;51.598;7.668;2023-07-20T03:49:30;8.00;;;2.70;;
29382;SDS011;16365;51.598;7.668;2023-07-20T03:51:57;4.88;;;2.80;;
29382;SDS011;16365;51.598;7.668;2023-07-20T03:54:24;5.68;;;2.78;;
29382;SDS011;16365;51.598;7.668;2023-07-20T03:56:50;7.72;;;3.25;;
29382;SDS011;16365;51.598;7.668;2023-07-20T03:59:17;4.40;;;2.72;;
29382;SDS011;16365;51.598;7.668;2023-07-20T04:01:43;5.32;;;3.08;;
29382;SDS011;16365;51.598;7.668;2023-07-20T04:04:10;6.07;;;3.50;;
29382;SDS011;16365;51.598;7.668;2023-07-20T04:06:37;7.55;;;3.80;;
29382;SDS011;16365;51.598;7.668;2023-07-20T04:11:32;7.70;;;3.50;;
29382;SDS011;16365;51.598;7.668;2023-07-20T04:13:59;7.38;;;4.05;;
29382;SDS011;16365;51.598;7.668;2023-07-20T04:16:25;5.57;;;3.50;;
29382;SDS011;16365;51.598;7.668;2023-07-20T04:18:56;6.88;;;4.43;;
29382;SDS011;16365;51.598;7.668;2023-07-20T04:21:25;7.80;;;4.35;;
29382;SDS011;16365;51.598;7.668;2023-07-20T04:23:55;6.55;;;4.43;;
29382;SDS011;16365;51.598;7.668;2023-07-20T04:26:21;7.10;;;4.72;;
29382;SDS011;16365;51.598;7.668;2023-07-20T04:28:48;7.60;;;5.03;;
29382;SDS011;16365;51.598;7.668;2023-07-20T04:31:16;8.85;;;4.82;;
29382;SDS011;16365;51.598;7.668;2023-07-20T04:33:44;11.43;;;5.95;;
29382;SDS011;16365;51.598;7.668;2023-07-20T04:36:11;10.82;;;6.65;;
29382;SDS011;16365;51.598;7.668;2023-07-20T04:38:37;11.30;;;7.00;;
29382;SDS011;16365;51.598;7.668;2023-07-20T04:41:04;11.85;;;7.50;;
29382;SDS011;16365;51.598;7.668;2023-07-20T04:43:30;12.98;;;6.72;;
29382;SDS011;16365;51.598;7.668;2023-07-20T04:45:57;14.48;;;7.18;;
29382;SDS011;16365;51.598;7.668;2023-07-20T04:48:25;16.25;;;7.60;;
29382;SDS011;16365;51.598;7.668;2023-07-20T04:50:51;13.18;;;7.88;;
29382;SDS011;16365;51.598;7.668;2023-07-20T04:53:19;14.00;;;6.43;;
29382;SDS011;16365;51.598;7.668;2023-07-20T04:55:47;13.63;;;6.55;;
29382;SDS011;16365;51.598;7.668;2023-07-20T04:58:19;11.35;;;7.30;;
29382;SDS011;16365;51.598;7.668;2023-07-20T05:00:47;11.53;;;6.73;;
29382;SDS011;16365;51.598;7.668;2023-07-20T05:03:17;10.98;;;7.05;;
29382;SDS011;16365;51.598;7.668;2023-07-20T05:05:44;12.13;;;7.65;;
29382;SDS011;16365;51.598;7.668;2023-07-20T05:08:15;14.07;;;6.70;;
29382;SDS011;16365;51.598;7.668;2023-07-20T05:10:42;10.48;;;7.28;;
29382;SDS011;16365;51.598;7.668;2023-07-20T05:13:09;7.95;;;6.47;;
29382;SDS011;16365;51.598;7.668;2023-07-20T05:15:35;14.27;;;6.78;;
29382;SDS011;16365;51.598;7.668;2023-07-20T05:18:02;9.27;;;6.30;;
29382;SDS011;16365;51.598;7.668;2023-07-20T05:20:29;10.30;;;6.90;;
29382;SDS011;16365;51.598;7.668;2023-07-20T05:22:58;10.32;;;6.07;;
29382;SDS011;16365;51.598;7.668;2023-07-20T05:25:25;9.18;;;6.38;;
29382;SDS011;16365;51.598;7.668;2023-07-20T05:27:56;9.30;;;5.82;;
29382;SDS011;16365;51.598;7.668;2023-07-20T05:30:23;8.90;;;5.68;;
29382;SDS011;16365;51.598;7.668;2023-07-20T05:32:52;8.45;;;5.57;;
29382;SDS011;16365;51.598;7.668;2023-07-20T05:35:20;11.00;;;6.03;;
29382;SDS011;16365;51.598;7.668;2023-07-20T05:37:49;8.23;;;6.38;;
29382;SDS011;16365;51.598;7.668;2023-07-20T05:40:16;6.38;;;5.32;;
29382;SDS011;16365;51.598;7.668;2023-07-20T05:42:47;8.32;;;5.63;;
29382;SDS011;16365;51.598;7.668;2023-07-20T05:45:16;6.97;;;5.95;;
29382;SDS011;16365;51.598;7.668;2023-07-20T05:47:42;8.18;;;6.18;;
29382;SDS011;16365;51.598;7.668;2023-07-20T05:50:09;8.02;;;5.88;;
29382;SDS011;16365;51.598;7.668;2023-07-20T05:52:36;9.82;;;5.78;;
29382;SDS011;16365;51.598;7.668;2023-07-20T05:55:05;8.88;;;5.95;;
29382;SDS011;16365;51.598;7.668;2023-07-20T05:57:33;7.82;;;6.05;;
29382;SDS011;16365;51.598;7.668;2023-07-20T06:00:00;6.50;;;5.68;;
29382;SDS011;16365;51.598;7.668;2023-07-20T06:02:27;7.65;;;6.00;;
29382;SDS011;16365;51.598;7.668;2023-07-20T06:04:55;14.50;;;6.18;;
29382;SDS011;16365;51.598;7.668;2023-07-20T06:07:21;8.57;;;5.93;;
29382;SDS011;16365;51.598;7.668;2023-07-20T06:09:48;9.18;;;6.45;;
29382;SDS011;16365;51.598;7.668;2023-07-20T06:12:14;9.25;;;7.70;;
29382;SDS011;16365;51.598;7.668;2023-07-20T06:14:41;11.35;;;8.07;;
29382;SDS011;16365;51.598;7.668;2023-07-20T06:17:09;13.90;;;9.52;;
29382;SDS011;16365;51.598;7.668;2023-07-20T06:19:35;10.80;;;9.20;;
29382;SDS011;16365;51.598;7.668;2023-07-20T06:22:02;11.10;;;9.80;;
29382;SDS011;16365;51.598;7.668;2023-07-20T06:24:28;12.68;;;10.07;;
29382;SDS011;16365;51.598;7.668;2023-07-20T06:26:55;12.68;;;10.60;;
29382;SDS011;16365;51.598;7.668;2023-07-20T06:29:23;12.85;;;10.63;;
29382;SDS011;16365;51.598;7.668;2023-07-20T06:31:49;13.93;;;10.77;;
29382;SDS011;16365;51.598;7.668;2023-07-20T06:34:16;13.07;;;11.23;;
29382;SDS011;16365;51.598;7.668;2023-07-20T06:36:43;14.73;;;11.57;;
29382;SDS011;16365;51.598;7.668;2023-07-20T06:39:10;12.30;;;10.23;;
29382;SDS011;16365;51.598;7.668;2023-07-20T06:41:39;12.77;;;9.70;;
29382;SDS011;16365;51.598;7.668;2023-07-20T06:44:08;12.13;;;9.10;;
29382;SDS011;16365;51.598;7.668;2023-07-20T06:46:35;11.80;;;9.10;;
29382;SDS011;16365;51.598;7.668;2023-07-20T06:49:02;9.55;;;8.10;;
29382;SDS011;16365;51.598;7.668;2023-07-20T06:51:31;12.95;;;7.80;;
29382;SDS011;16365;51.598;7.668;2023-07-20T06:53:59;8.23;;;7.00;;
29382;SDS011;16365;51.598;7.668;2023-07-20T06:56:26;7.18;;;5.70;;
29382;SDS011;16365;51.598;7.668;2023-07-20T07:01:21;6.80;;;4.38;;
29382;SDS011;16365;51.598;7.668;2023-07-20T07:03:49;5.65;;;3.60;;
29382;SDS011;16365;51.598;7.668;2023-07-20T07:06:20;4.70;;;3.03;;
29382;SDS011;16365;51.598;7.668;2023-07-20T07:08:49;4.72;;;3.05;;
29382;SDS011;16365;51.598;7.668;2023-07-20T07:11:16;3.35;;;2.78;;
29382;SDS011;16365;51.598;7.668;2023-07-20T07:13:42;2.70;;;2.30;;
29382;SDS011;16365;51.598;7.668;2023-07-20T07:16:09;6.72;;;2.50;;
29382;SDS011;16365;51.598;7.668;2023-07-20T07:18:35;2.75;;;2.08;;
29382;SDS011;16365;51.598;7.668;2023-07-20T07:21:05;4.68;;;2.20;;
29382;SDS011;16365;51.598;7.668;2023-07-20T07:23:32;2.22;;;1.80;;
29382;SDS011;16365;51.598;7.668;2023-07-20T07:25:58;4.22;;;2.00;;
29382;SDS011;16365;51.598;7.668;2023-07-20T07:28:25;1.95;;;1.55;;
29382;SDS011;16365;51.598;7.668;2023-07-20T07:30:51;3.03;;;2.10;;
29382;SDS011;16365;51.598;7.668;2023-07-20T07:33:18;1.70;;;1.30;;
29382;SDS011;16365;51.598;7.668;2023-07-20T07:35:45;2.28;;;1.50;;
29382;SDS011;16365;51.598;7.668;2023-07-20T07:38:11;2.17;;;1.48;;
29382;SDS011;16365;51.598;7.668;2023-07-20T07:40:58;3.72;;;1.63;;
29382;SDS011;16365;51.598;7.668;2023-07-20T07:43:26;2.03;;;1.30;;
29382;SDS011;16365;51.598;7.668;2023-07-20T07:45:53;3.38;;;1.77;;
29382;SDS011;16365;51.598;7.668;2023-07-20T07:48:20;2.90;;;1.80;;
29382;SDS011;16365;51.598;7.668;2023-07-20T07:50:48;2.23;;;1.60;;
29382;SDS011;16365;51.598;7.668;2023-07-20T07:53:16;2.60;;;1.70;;
29382;SDS011;16365;51.598;7.668;2023-07-20T07:55:42;1.92;;;1.70;;
29382;SDS011;16365;51.598;7.668;2023-07-20T07:58:09;7.05;;;2.25;;
29382;SDS011;16365;51.598;7.668;2023-07-20T08:00:36;3.75;;;2.00;;
29382;SDS011;16365;51.598;7.668;2023-07-20T08:03:02;3.95;;;1.95;;
29382;SDS011;16365;51.598;7.668;2023-07-20T08:05:29;6.30;;;1.92;;
29382;SDS011;16365;51.598;7.668;2023-07-20T08:07:56;3.08;;;1.90;;
29382;SDS011;16365;51.598;7.668;2023-07-20T08:10:22;5.18;;;1.90;;
29382;SDS011;16365;51.598;7.668;2023-07-20T08:12:49;4.80;;;1.80;;
29382;SDS011;16365;51.598;7.668;2023-07-20T08:15:15;1.50;;;1.40;;
29382;SDS011;16365;51.598;7.668;2023-07-20T08:17:42;3.28;;;1.35;;
29382;SDS011;16365;51.598;7.668;2023-07-20T08:20:12;4.75;;;1.30;;
29382;SDS011;16365;51.598;7.668;2023-07-20T08:22:39;1.23;;;1.00;;
29382;SDS011;16365;51.598;7.668;2023-07-20T08:25:06;3.97;;;1.05;;
29382;SDS011;16365;51.598;7.668;2023-07-20T08:27:33;1.20;;;1.10;;
29382;SDS011;16365;51.598;7.668;2023-07-20T08:30:00;4.53;;;0.93;;
29382;SDS011;16365;51.598;7.668;2023-07-20T08:32:27;1.85;;;0.98;;
29382;SDS011;16365;51.598;7.668;2023-07-20T08:34:53;1.88;;;1.00;;
29382;SDS011;16365;51.598;7.668;2023-07-20T08:37:21;2.78;;;1.00;;
29382;SDS011;16365;51.598;7.668;2023-07-20T08:39:48;1.92;;;1.20;;
29382;SDS011;16365;51.598;7.668;2023-07-20T08:42:15;4.05;;;0.80;;
29382;SDS011;16365;51.598;7.668;2023-07-20T08:44:43;1.33;;;0.82;;
29382;SDS011;16365;51.598;7.668;2023-07-20T08:47:11;5.72;;;0.73;;
29382;SDS011;16365;51.598;7.668;2023-07-20T08:49:39;3.28;;;0.95;;
29382;SDS011;16365;51.598;7.668;2023-07-20T08:52:07;1.15;;;0.85;;
29382;SDS011;16365;51.598;7.668;2023-07-20T08:54:34;1.98;;;0.68;;
29382;SDS011;16365;51.598;7.668;2023-07-20T08:57:03;3.20;;;0.50;;
29382;SDS011;16365;51.598;7.668;2023-07-20T08:59:32;1.05;;;0.60;;
29382;SDS011;16365;51.598;7.668;2023-07-20T09:02:01;1.65;;;0.55;;
29382;SDS011;16365;51.598;7.668;2023-07-20T09:04:31;1.23;;;0.50;;
29382;SDS011;16365;51.598;7.668;2023-07-20T09:06:57;0.73;;;0.60;;
29382;SDS011;16365;51.598;7.668;2023-07-20T09:09:24;0.90;;;0.60;;
29382;SDS011;16365;51.598;7.668;2023-07-20T09:11:51;1.58;;;0.63;;
29382;SDS011;16365;51.598;7.668;2023-07-20T09:14:17;0.95;;;0.50;;
29382;SDS011;16365;51.598;7.668;2023-07-20T09:16:55;0.60;;;0.50;;
29382;SDS011;16365;51.598;7.668;2023-07-20T09:19:22;0.70;;;0.63;;
29382;SDS011;16365;51.598;7.668;2023-07-20T09:21:49;3.50;;;0.85;;
29382;SDS011;16365;51.598;7.668;2023-07-20T09:24:17;2.45;;;0.80;;
29382;SDS011;16365;51.598;7.668;2023-07-20T09:26:46;2.45;;;0.80;;
29382;SDS011;16365;51.598;7.668;2023-07-20T09:29:16;5.45;;;0.80;;
29382;SDS011;16365;51.598;7.668;2023-07-20T09:31:58;7.55;;;0.80;;
29382;SDS011;16365;51.598;7.668;2023-07-20T09:34:29;17.90;;;1.92;;
29382;SDS011;16365;51.598;7.668;2023-07-20T09:37:02;7.07;;;0.77;;
29382;SDS011;16365;51.598;7.668;2023-07-20T09:39:29;13.57;;;1.77;;
29382;SDS011;16365;51.598;7.668;2023-07-20T09:42:00;11.23;;;2.50;;
29382;SDS011;16365;51.598;7.668;2023-07-20T09:44:34;4.53;;;0.70;;
29382;SDS011;16365;51.598;7.668;2023-07-20T09:47:04;1.17;;;0.57;;
29382;SDS011;16365;51.598;7.668;2023-07-20T09:49:31;8.00;;;0.80;;
29382;SDS011;16365;51.598;7.668;2023-07-20T09:52:18;4.93;;;1.45;;
29382;SDS011;16365;51.598;7.668;2023-07-20T09:55:05;2.85;;;0.70;;
29382;SDS011;16365;51.598;7.668;2023-07-20T09:57:33;2.55;;;0.50;;
29382;SDS011;16365;51.598;7.668;2023-07-20T10:00:03;2.63;;;0.57;;
29382;SDS011;16365;51.598;7.668;2023-07-20T10:02:43;1.40;;;0.50;;
29382;SDS011;16365;51.598;7.668;2023-07-20T10:05:12;1.83;;;0.55;;
29382;SDS011;16365;51.598;7.668;2023-07-20T10:07:44;0.68;;;0.60;;
29382;SDS011;16365;51.598;7.668;2023-07-20T10:10:16;1.83;;;0.60;;
29382;SDS011;16365;51.598;7.668;2023-07-20T10:12:47;1.25;;;0.63;;
29382;SDS011;16365;51.598;7.668;2023-07-20T10:15:25;4.88;;;0.82;;
29382;SDS011;16365;51.598;7.668;2023-07-20T10:20:42;4.80;;;0.77;;
29382;SDS011;16365;51.598;7.668;2023-07-20T10:23:13;1.17;;;0.60;;
29382;SDS011;16365;51.598;7.668;2023-07-20T10:25:40;1.17;;;0.80;;
29382;SDS011;16365;51.598;7.668;2023-07-20T10:28:09;3.00;;;0.80;;
29382;SDS011;16365;51.598;7.668;2023-07-20T10:30:37;1.05;;;0.60;;
29382;SDS011;16365;51.598;7.668;2023-07-20T10:33:05;27.27;;;1.48;;
29382;SDS011;16365;51.598;7.668;2023-07-20T10:38:18;3.40;;;0.95;;
29382;SDS011;16365;51.598;7.668;2023-07-20T10:40:55;11.02;;;1.17;;
29382;SDS011;16365;51.598;7.668;2023-07-20T10:43:22;6.55;;;1.30;;
29382;SDS011;16365;51.598;7.668;2023-07-20T10:45:49;0.95;;;0.60;;
29382;SDS011;16365;51.598;7.668;2023-07-20T10:48:22;2.65;;;0.65;;
29382;SDS011;16365;51.598;7.668;2023-07-20T10:51:08;0.82;;;0.52;;
29382;SDS011;16365;51.598;7.668;2023-07-20T10:53:43;0.50;;;0.40;;
29382;SDS011;16365;51.598;7.668;2023-07-20T10:56:12;2.72;;;0.90;;
29382;SDS011;16365;51.598;7.668;2023-07-20T10:58:41;1.63;;;0.50;;
29382;SDS011;16365;51.598;7.668;2023-07-20T11:01:08;0.80;;;0.60;;
29382;SDS011;16365;51.598;7.668;2023-07-20T11:03:48;1.63;;;0.60;;
29382;SDS011;16365;51.598;7.668;2023-07-20T11:08:55;8.57;;;0.82;;
29382;SDS011;16365;51.598;7.668;2023-07-20T11:11:26;0.77;;;0.73;;
29382;SDS011;16365;51.598;7.668;2023-07-20T11:14:01;3.47;;;0.50;;
29382;SDS011;16365;51.598;7.668;2023-07-20T11:16:42;2.92;;;0.82;;
29382;SDS011;16365;51.598;7.668;2023-07-20T11:19:14;3.95;;;0.55;;
29382;SDS011;16365;51.598;7.668;2023-07-20T11:21:49;0.52;;;0.50;;
29382;SDS011;16365;51.598;7.668;2023-07-20T11:24:28;0.50;;;0.50;;
29382;SDS011;16365;51.598;7.668;2023-07-20T11:26:54;1.50;;;0.63;;
29382;SDS011;16365;51.598;7.668;2023-07-20T11:29:22;4.53;;;0.70;;
29382;SDS011;16365;51.598;7.668;2023-07-20T11:31:58;1.30;;;0.40;;
29382;SDS011;16365;51.598;7.668;2023-07-20T11:34:25;1.02;;;0.57;;
29382;SDS011;16365;51.598;7.668;2023-07-20T11:36:53;1.05;;;0.77;;
29382;SDS011;16365;51.598;7.668;2023-07-20T11:39:23;26.25;;;1.98;;
29382;SDS011;16365;51.598;7.668;2023-07-20T11:41:53;1.83;;;0.80;;
29382;SDS011;16365;51.598;7.668;2023-07-20T11:44:25;3.03;;;0.70;;
29382;SDS011;16365;51.598;7.668;2023-07-20T11:47:10;24.30;;;1.42;;
29382;SDS011;16365;51.598;7.668;2023-07-20T11:49:39;4.35;;;0.60;;
29382;SDS011;16365;51.598;7.668;2023-07-20T11:52:07;6.97;;;0.98;;
29382;SDS011;16365;51.598;7.668;2023-07-20T11:57:03;1.17;;;0.68;;
29382;SDS011;16365;51.598;7.668;2023-07-20T11:59:31;3.50;;;0.70;;
29382;SDS011;16365;51.598;7.668;2023-07-20T12:02:00;5.72;;;1.02;;
29382;SDS011;16365;51.598;7.668;2023-07-20T12:04:30;5.53;;;0.95;;
29382;SDS011;16365;51.598;7.668;2023-07-20T12:06:57;10.02;;;1.00;;
29382;SDS011;16365;51.598;7.668;2023-07-20T12:09:24;0.85;;;0.70;;
29382;SDS011;16365;51.598;7.668;2023-07-20T12:12:08;16.55;;;1.00;;
29382;SDS011;16365;51.598;7.668;2023-07-20T12:14:38;1.75;;;0.50;;
29382;SDS011;16365;51.598;7.668;2023-07-20T12:17:04;0.50;;;0.50;;
29382;SDS011;16365;51.598;7.668;2023-07-20T12:19:37;2.72;;;0.77;;
29382;SDS011;16365;51.598;7.668;2023-07-20T12:22:06;2.88;;;0.80;;
29382;SDS011;16365;51.598;7.668;2023-07-20T12:24:33;2.15;;;0.90;;
29382;SDS011;16365;51.598;7.668;2023-07-20T12:27:01;2.15;;;0.60;;
29382;SDS011;16365;51.598;7.668;2023-07-20T12:29:27;2.75;;;0.70;;
29382;SDS011;16365;51.598;7.668;2023-07-20T12:31:54;1.30;;;0.80;;
29382;SDS011;16365;51.598;7.668;2023-07-20T12:34:20;1.20;;;0.70;;
29382;SDS011;16365;51.598;7.668;2023-07-20T12:36:47;2.53;;;0.85;;
29382;SDS011;16365;51.598;7.668;2023-07-20T12:39:14;0.70;;;0.70;;
29382;SDS011;16365;51.598;7.668;2023-07-20T12:41:40;3.95;;;0.90;;
29382;SDS011;16365;51.598;7.668;2023-07-20T12:44:07;1.63;;;0.70;;
29382;SDS011;16365;51.598;7.668;2023-07-20T12:46:33;2.15;;;0.60;;
29382;SDS011;16365;51.598;7.668;2023-07-20T12:49:03;2.40;;;0.70;;
29382;SDS011;16365;51.598;7.668;2023-07-20T12:51:30;1.02;;;0.60;;
29382;SDS011;16365;51.598;7.668;2023-07-20T12:53:57;5.00;;;0.75;;
29382;SDS011;16365;51.598;7.668;2023-07-20T12:56:23;5.65;;;0.90;;
29382;SDS011;16365;51.598;7.668;2023-07-20T12:58:53;0.90;;;0.60;;
29382;SDS011;16365;51.598;7.668;2023-07-20T13:01:19;1.58;;;0.60;;
29382;SDS011;16365;51.598;7.668;2023-07-20T13:03:46;1.08;;;0.60;;
29382;SDS011;16365;51.598;7.668;2023-07-20T13:06:15;0.68;;;0.57;;
29382;SDS011;16365;51.598;7.668;2023-07-20T13:08:45;7.82;;;1.20;;
29382;SDS011;16365;51.598;7.668;2023-07-20T13:11:11;2.13;;;0.80;;
29382;SDS011;16365;51.598;7.668;2023-07-20T13:13:37;2.40;;;1.40;;
29382;SDS011;16365;51.598;7.668;2023-07-20T13:16:04;2.05;;;0.90;;
29382;SDS011;16365;51.598;7.668;2023-07-20T13:18:32;0.90;;;0.80;;
29382;SDS011;16365;51.598;7.668;2023-07-20T13:20:58;2.88;;;0.75;;
29382;SDS011;16365;51.598;7.668;2023-07-20T13:23:25;3.30;;;0.80;;
29382;SDS011;16365;51.598;7.668;2023-07-20T13:25:52;0.80;;;0.80;;
29382;SDS011;16365;51.598;7.668;2023-07-20T13:28:20;1.42;;;0.80;;
29382;SDS011;16365;51.598;7.668;2023-07-20T13:30:47;2.53;;;0.77;;
29382;SDS011;16365;51.598;7.668;2023-07-20T13:33:14;6.05;;;1.40;;
29382;SDS011;16365;51.598;7.668;2023-07-20T13:35:43;1.33;;;0.80;;
29382;SDS011;16365;51.598;7.668;2023-07-20T13:38:13;0.93;;;0.70;;
29382;SDS011;16365;51.598;7.668;2023-07-20T13:40:40;1.35;;;0.77;;
29382;SDS011;16365;51.598;7.668;2023-07-20T13:43:08;1.25;;;0.70;;
29382;SDS011;16365;51.598;7.668;2023-07-20T13:45:36;0.90;;;0.70;;
29382;SDS011;16365;51.598;7.668;2023-07-20T13:48:05;2.38;;;0.60;;
29382;SDS011;16365;51.598;7.668;2023-07-20T13:50:34;0.63;;;0.60;;
29382;SDS011;16365;51.598;7.668;2023-07-20T13:53:03;1.13;;;0.75;;
29382;SDS011;16365;51.598;7.668;2023-07-20T13:55:33;1.90;;;0.60;;
29382;SDS011;16365;51.598;7.668;2023-07-20T13:58:08;0.60;;;0.60;;
29382;SDS011;16365;51.598;7.668;2023-07-20T14:00:38;2.08;;;0.70;;
29382;SDS011;16365;51.598;7.668;2023-07-20T14:03:05;0.75;;;0.60;;
29382;SDS011;16365;51.598;7.668;2023-07-20T14:05:34;4.07;;;0.95;;
29382;SDS011;16365;51.598;7.668;2023-07-20T14:08:04;1.02;;;0.60;;
29382;SDS011;16365;51.598;7.668;2023-07-20T14:10:32;0.95;;;0.77;;
29382;SDS011;16365;51.598;7.668;2023-07-20T14:13:19;0.65;;;0.63;;
29382;SDS011;16365;51.598;7.668;2023-07-20T14:15:53;1.00;;;0.70;;
29382;SDS011;16365;51.598;7.668;2023-07-20T14:18:20;0.77;;;0.77;;
29382;SDS011;16365;51.598;7.668;2023-07-20T14:20:46;1.20;;;0.63;;
29382;SDS011;16365;51.598;7.668;2023-07-20T14:23:13;1.63;;;0.80;;
29382;SDS011;16365;51.598;7.668;2023-07-20T14:25:40;3.83;;;0.70;;
29382;SDS011;16365;51.598;7.668;2023-07-20T14:28:07;1.88;;;0.50;;
29382;SDS011;16365;51.598;7.668;2023-07-20T14:30:34;1.10;;;0.70;;
29382;SDS011;16365;51.598;7.668;2023-07-20T14:33:00;0.60;;;0.60;;
29382;SDS011;16365;51.598;7.668;2023-07-20T14:35:26;0.95;;;0.70;;
29382;SDS011;16365;51.598;7.668;2023-07-20T14:37:53;2.72;;;0.60;;
29382;SDS011;16365;51.598;7.668;2023-07-20T14:40:20;1.42;;;0.70;;
29382;SDS011;16365;51.598;7.668;2023-07-20T14:42:46;1.50;;;0.82;;
29382;SDS011;16365;51.598;7.668;2023-07-20T14:45:13;4.00;;;0.88;;
29382;SDS011;16365;51.598;7.668;2023-07-20T14:47:40;2.40;;;0.77;;
29382;SDS011;16365;51.598;7.668;2023-07-20T14:50:06;3.40;;;0.80;;
29382;SDS011;16365;51.598;7.668;2023-07-20T14:52:33;3.08;;;0.70;;
29382;SDS011;16365;51.598;7.668;2023-07-20T14:54:59;2.25;;;1.00;;
29382;SDS011;16365;51.598;7.668;2023-07-20T14:57:26;2.13;;;0.85;;
29382;SDS011;16365;51.598;7.668;2023-07-20T14:59:53;1.13;;;0.70;;
29382;SDS011;16365;51.598;7.668;2023-07-20T15:02:19;2.80;;;0.80;;
29382;SDS011;16365;51.598;7.668;2023-07-20T15:04:47;1.90;;;1.27;;
29382;SDS011;16365;51.598;7.668;2023-07-20T15:09:45;1.73;;;1.15;;
29382;SDS011;16365;51.598;7.668;2023-07-20T15:12:12;4.00;;;0.73;;
29382;SDS011;16365;51.598;7.668;2023-07-20T15:14:39;0.60;;;0.60;;
29382;SDS011;16365;51.598;7.668;2023-07-20T15:17:08;1.45;;;1.00;;
29382;SDS011;16365;51.598;7.668;2023-07-20T15:19:37;1.90;;;0.98;;
29382;SDS011;16365;51.598;7.668;2023-07-20T15:22:04;0.90;;;0.77;;
29382;SDS011;16365;51.598;7.668;2023-07-20T15:24:32;1.00;;;0.88;;